Time;durP1;ratioP1;P1;durP2;ratioP2;P2;SDS_P1;SDS_P2;PMS_P1;PMS_P2;Temp;Humidity;BMP_temperature;BMP_pressure;BME280_temperature;BME280_humidity;BME280_pressure;Samples;Min_cycle;Max_cycle;Signal;HPM_P1;HPM_P2
2022/09/06 00:00:06;;;;;;;7.85;6.20;;;;;;;17.09;100.00;101412.25;5094480;28;20098;-44
2022/09/06 00:02:33;;;;;;;8.27;5.90;;;;;;;17.05;100.00;101415.69;5092296;28;20024;-42
2022/09/06 00:04:58;;;;;;;9.43;6.50;;;;;;;17.07;100.00;101427.84;5094344;28;20020;-46
2022/09/06 00:07:24;;;;;;;9.30;6.57;;;;;;;17.05;100.00;101453.00;5094358;28;20028;-43
2022/09/06 00:09:49;;;;;;;9.02;6.90;;;;;;;17.05;100.00;101468.63;5093858;28;20016;-42
2022/09/06 00:12:14;;;;;;;12.63;7.50;;;;;;;17.06;100.00;101475.59;5094054;28;20032;-42
2022/09/06 00:14:40;;;;;;;9.23;6.80;;;;;;;17.01;100.00;101472.03;5094241;28;20032;-44
2022/09/06 00:17:05;;;;;;;10.63;7.85;;;;;;;17.02;100.00;101510.25;5093378;28;20031;-42
2022/09/06 00:19:30;;;;;;;11.55;8.50;;;;;;;17.00;100.00;101550.16;5093481;28;20480;-47
2022/09/06 00:21:56;;;;;;;11.05;7.82;;;;;;;16.93;100.00;101562.22;5094013;28;20027;-43
2022/09/06 00:24:21;;;;;;;9.15;7.88;;;;;;;16.94;100.00;101563.97;5093296;28;20024;-43
2022/09/06 00:26:46;;;;;;;10.02;8.55;;;;;;;16.91;100.00;101584.75;5094169;28;20024;-47
2022/09/06 00:29:12;;;;;;;12.40;7.70;;;;;;;16.88;100.00;101585.53;5093897;28;20385;-43
2022/09/06 00:31:37;;;;;;;12.80;8.85;;;;;;;16.87;100.00;101588.13;5093036;28;20040;-43
2022/09/06 00:34:02;;;;;;;10.88;7.90;;;;;;;16.87;100.00;101591.59;5093763;28;20463;-43
2022/09/06 00:36:28;;;;;;;11.73;8.63;;;;;;;16.89;100.00;101596.84;5093708;28;20030;-42
2022/09/06 00:38:53;;;;;;;12.80;9.07;;;;;;;16.86;100.00;101584.66;5093268;28;20046;-43
2022/09/06 00:41:18;;;;;;;11.48;8.93;;;;;;;16.86;100.00;101569.03;5093691;28;20047;-43
2022/09/06 00:43:44;;;;;;;11.80;8.70;;;;;;;16.86;100.00;101582.06;5093621;28;20416;-43
2022/09/06 00:46:18;;;;;;;12.20;9.05;;;;;;;16.94;100.00;101579.59;5092951;28;20034;-45
2022/09/06 00:48:45;;;;;;;10.80;9.65;;;;;;;16.93;100.00;101575.22;5093488;28;20368;-42
2022/09/06 00:51:12;;;;;;;13.25;10.05;;;;;;;16.95;100.00;101586.53;5092786;28;20034;-42
2022/09/06 00:53:37;;;;;;;10.73;8.90;;;;;;;16.95;100.00;101570.91;5093786;28;20076;-45
2022/09/06 00:56:03;;;;;;;12.65;8.98;;;;;;;16.99;100.00;101562.31;5093393;28;20032;-42
2022/09/06 00:58:29;;;;;;;11.25;9.07;;;;;;;16.95;100.00;101552.69;5092703;28;20024;-45
2022/09/06 01:00:54;;;;;;;10.73;9.63;;;;;;;16.85;100.00;101542.94;5093450;28;20035;-45
2022/09/06 01:03:21;;;;;;;13.02;10.18;;;;;;;16.81;100.00;101541.16;5092998;28;20451;-44
2022/09/06 01:06:02;;;;;;;;;;;;;;;16.97;100.00;101543.16;5093321;28;20051;-46
2022/09/06 01:08:56;;;;;;;10.18;8.95;;;;;;;16.86;100.00;101531.69;5093464;28;19912;-42
2022/09/06 01:12:03;;;;;;;12.50;9.35;;;;;;;16.89;100.00;101531.75;5093006;28;20060;-42
2022/09/06 01:14:39;;;;;;;12.65;9.95;;;;;;;16.94;100.00;101527.53;5093146;28;20044;-42
2022/09/06 01:17:07;;;;;;;12.65;9.50;;;;;;;16.92;100.00;101516.19;5093180;28;20024;-42
2022/09/06 01:20:23;;;;;;;17.38;10.07;;;;;;;16.94;100.00;101514.50;5092262;28;20024;-42
2022/09/06 01:23:13;;;;;;;14.13;10.18;;;;;;;16.85;100.00;101511.72;5066850;28;20127;-42
2022/09/06 01:26:02;;;;;;;11.23;10.07;;;;;;;16.78;100.00;101514.25;5093039;28;20028;-42
2022/09/06 01:28:57;;;;;;;12.02;10.65;;;;;;;16.74;100.00;101502.00;5092186;28;20032;-43
2022/09/06 01:31:47;;;;;;;14.05;11.50;;;;;;;16.72;100.00;101479.41;5079075;28;20503;-42
2022/09/06 01:34:27;;;;;;;14.45;10.95;;;;;;;16.66;100.00;101454.19;5092213;28;20081;-42
2022/09/06 01:37:00;;;;;;;11.63;10.43;;;;;;;16.65;100.00;101421.22;5092927;28;20012;-42
2022/09/06 01:39:28;;;;;;;16.27;11.10;;;;;;;16.62;100.00;101396.00;5093018;28;20038;-44
2022/09/06 01:41:56;;;;;;;11.82;10.38;;;;;;;16.60;100.00;101376.03;5092156;28;20039;-45
2022/09/06 01:44:24;;;;;;;13.23;11.27;;;;;;;16.58;100.00;101372.56;5092644;28;20035;-42
2022/09/06 01:46:59;;;;;;;12.15;10.77;;;;;;;16.55;100.00;101372.50;5093086;28;20020;-42
2022/09/06 01:49:49;;;;;;;13.07;10.43;;;;;;;16.58;100.00;101367.34;5091837;28;20054;-42
2022/09/06 01:52:26;;;;;;;12.63;10.98;;;;;;;16.62;100.00;101358.72;5092763;28;20028;-43
2022/09/06 01:54:51;;;;;;;;;;;;;;;16.69;100.00;101360.53;5092640;28;20028;-42
2022/09/06 01:57:44;;;;;;;13.05;10.77;;;;;;;16.62;100.00;101361.31;5092449;28;19953;-43
2022/09/06 02:00:15;;;;;;;11.70;10.32;;;;;;;16.62;100.00;101348.31;5092843;28;20024;-43
2022/09/06 02:03:24;;;;;;;12.40;10.57;;;;;;;16.65;100.00;101342.28;5091979;28;20032;-43
2022/09/06 02:05:54;;;;;;;11.52;10.40;;;;;;;16.61;100.00;101342.22;5092750;28;20039;-42
2022/09/06 02:08:24;;;;;;;11.98;10.63;;;;;;;16.63;100.00;101337.91;5091997;28;20020;-42
2022/09/06 02:11:13;;;;;;;11.43;10.13;;;;;;;16.58;100.00;101338.72;5092760;28;20024;-44
2022/09/06 02:13:46;;;;;;;13.07;11.50;;;;;;;16.50;100.00;101324.72;5092553;28;20032;-44
2022/09/06 02:16:18;;;;;;;15.25;10.43;;;;;;;16.48;100.00;101329.06;5091865;28;20111;-41
2022/09/06 02:19:05;;;;;;;15.23;10.52;;;;;;;16.49;100.00;101348.97;5092576;28;20028;-42
2022/09/06 02:21:35;;;;;;;14.05;11.50;;;;;;;16.51;100.00;101381.13;5092671;28;20127;-43
2022/09/06 02:24:06;;;;;;;13.35;11.77;;;;;;;16.52;100.00;101368.13;5091811;28;20024;-42
2022/09/06 02:26:35;;;;;;;12.30;11.07;;;;;;;16.41;100.00;101352.38;5092682;28;20032;-45
2022/09/06 02:29:01;;;;;;;13.05;11.20;;;;;;;16.48;100.00;101388.91;5092275;28;20024;-44
2022/09/06 02:31:52;;;;;;;13.05;11.68;;;;;;;16.42;100.00;101372.34;5091772;28;20039;-43
2022/09/06 02:34:19;;;;;;;13.45;12.05;;;;;;;16.45;100.00;101377.56;5091851;28;20454;-41
2022/09/06 02:36:46;;;;;;;13.73;12.23;;;;;;;16.40;100.00;101387.03;5091944;28;20036;-45
2022/09/06 02:39:12;;;;;;;12.50;11.30;;;;;;;16.31;100.00;101379.13;5092151;28;20459;-41
2022/09/06 02:41:39;;;;;;;12.48;10.57;;;;;;;16.18;100.00;101371.97;5092814;28;20024;-46
2022/09/06 02:44:04;;;;;;;;;;;;;;;16.30;100.00;101365.22;5095327;28;20391;-43
2022/09/06 02:46:30;;;;;;;11.82;9.95;;;;;;;16.06;100.00;101368.34;5095961;28;20367;-44
2022/09/06 02:48:55;;;;;;;14.18;11.90;;;;;;;16.05;100.00;101371.81;5095919;28;20128;-42
2022/09/06 02:51:20;;;;;;;14.57;12.85;;;;;;;16.01;100.00;101363.91;5094734;28;20475;-43
2022/09/06 02:53:46;;;;;;;14.40;12.90;;;;;;;16.02;100.00;101356.13;5095762;28;20024;-42
2022/09/06 02:56:11;;;;;;;17.17;13.10;;;;;;;16.00;100.00;101357.84;5095809;28;20485;-42
2022/09/06 02:58:36;;;;;;;16.17;14.27;;;;;;;16.00;100.00;101360.44;5095082;28;20035;-43
2022/09/06 03:01:02;;;;;;;16.52;12.32;;;;;;;15.79;100.00;101356.63;5095642;28;20031;-42
2022/09/06 03:03:27;;;;;;;15.27;13.07;;;;;;;15.85;100.00;101357.63;5095527;28;20036;-43
2022/09/06 03:05:54;;;;;;;14.75;13.20;;;;;;;15.87;100.00;101361.09;5094786;28;20058;-43
2022/09/06 03:08:22;;;;;;;17.73;14.67;;;;;;;15.90;100.00;101364.63;5095294;28;20032;-43
2022/09/06 03:10:54;;;;;;;;;;;;;;;15.96;100.00;101363.88;5095914;28;20020;-42
2022/09/06 03:13:20;;;;;;;16.25;14.48;;;;;;;15.92;100.00;101354.25;5094685;28;19938;-42
2022/09/06 03:15:50;;;;;;;16.63;14.93;;;;;;;15.92;100.00;101360.34;5095563;28;20021;-45
2022/09/06 03:18:16;;;;;;;17.73;15.63;;;;;;;15.92;100.00;101354.25;5095292;28;20028;-43
2022/09/06 03:20:41;;;;;;;18.30;15.57;;;;;;;15.90;100.00;101361.16;5094514;28;20099;-43
2022/09/06 03:23:06;;;;;;;17.90;16.00;;;;;;;15.91;100.00;101355.13;5095042;28;20379;-42
2022/09/06 03:25:31;;;;;;;18.35;16.15;;;;;;;15.92;100.00;101355.13;5095351;28;20051;-42
2022/09/06 03:27:57;;;;;;;17.48;15.73;;;;;;;15.87;100.00;101349.00;5094631;28;20073;-43
2022/09/06 03:30:22;;;;;;;16.02;14.38;;;;;;;15.85;100.00;101344.63;5094893;28;20130;-45
2022/09/06 03:32:47;;;;;;;17.83;15.32;;;;;;;15.86;100.00;101356.78;5094271;28;20369;-42
2022/09/06 03:35:13;;;;;;;18.30;15.32;;;;;;;15.83;100.00;101359.31;5094901;28;20016;-43
2022/09/06 03:37:38;;;;;;;18.10;16.15;;;;;;;15.84;100.00;101359.34;5094858;28;20794;-45
2022/09/06 03:40:05;;;;;;;17.13;15.35;;;;;;;15.82;100.00;101365.38;5093953;28;20127;-42
2022/09/06 03:42:30;;;;;;;17.17;15.35;;;;;;;15.82;100.00;101360.19;5094714;28;20048;-43
2022/09/06 03:44:55;;;;;;;17.23;15.15;;;;;;;15.77;100.00;101360.91;5094976;28;20019;-46
2022/09/06 03:47:21;;;;;;;15.07;12.85;;;;;;;15.57;100.00;101355.41;5093842;28;20581;-42
2022/09/06 03:49:46;;;;;;;14.63;13.23;;;;;;;15.50;100.00;101361.31;5094741;28;20031;-42
2022/09/06 03:52:12;;;;;;;15.88;13.27;;;;;;;15.41;100.00;101364.63;5094310;28;20027;-42
2022/09/06 03:54:37;;;;;;;15.68;14.07;;;;;;;15.37;100.00;101369.75;5092875;28;20032;-42
2022/09/06 03:57:02;;;;;;;16.25;14.55;;;;;;;15.36;100.00;101374.06;5094654;28;20445;-43
2022/09/06 03:59:27;;;;;;;16.20;14.50;;;;;;;15.36;100.00;101374.06;5094658;28;20031;-44
2022/09/06 04:01:53;;;;;;;16.52;14.82;;;;;;;15.34;100.00;101375.78;5093848;28;20028;-43
2022/09/06 04:04:18;;;;;;;16.38;14.68;;;;;;;15.24;100.00;101371.25;5094244;28;20444;-41
2022/09/06 04:06:43;;;;;;;14.98;13.20;;;;;;;15.18;100.00;101378.94;5094385;28;20024;-44
2022/09/06 04:09:09;;;;;;;17.20;14.18;;;;;;;15.14;100.00;101375.38;5093745;28;20024;-43
2022/09/06 04:11:34;;;;;;;15.05;13.13;;;;;;;15.06;100.00;101372.66;5094304;28;20433;-43
2022/09/06 04:13:59;;;;;;;16.08;14.48;;;;;;;15.09;100.00;101374.41;5094221;28;20027;-42
2022/09/06 04:16:24;;;;;;;12.65;11.18;;;;;;;14.91;100.00;101365.44;5093247;28;20036;-44
2022/09/06 04:18:50;;;;;;;14.05;12.65;;;;;;;14.97;100.00;101369.88;5094162;28;20054;-43
2022/09/06 04:21:15;;;;;;;19.73;17.60;;;;;;;15.00;100.00;101379.44;5093915;28;20020;-42
2022/09/06 04:23:41;;;;;;;18.88;16.95;;;;;;;15.02;100.00;101383.81;5093715;28;20024;-42
2022/09/06 04:26:06;;;;;;;21.35;17.95;;;;;;;15.00;100.00;101382.03;5094113;28;20028;-44
2022/09/06 04:28:31;;;;;;;20.13;18.02;;;;;;;15.05;100.00;101389.06;5093757;28;20366;-42
2022/09/06 04:31:01;;;;;;;19.45;17.45;;;;;;;15.01;100.00;101388.97;5093400;28;20024;-42
2022/09/06 04:33:28;;;;;;;21.90;19.55;;;;;;;15.06;100.00;101392.53;5093759;28;20034;-42
2022/09/06 04:35:58;;;;;;;21.80;18.13;;;;;;;15.03;100.00;101395.97;5093839;28;20077;-42
2022/09/06 04:38:25;;;;;;;17.50;15.68;;;;;;;14.94;100.00;101388.84;5092891;28;20456;-42
2022/09/06 04:40:50;;;;;;;22.35;17.33;;;;;;;14.88;100.00;101390.44;5093751;28;20376;-42
2022/09/06 04:43:16;;;;;;;16.52;14.75;;;;;;;14.79;100.00;101386.81;5092638;28;20047;-43
2022/09/06 04:45:42;;;;;;;16.00;14.30;;;;;;;14.69;100.00;101394.38;5093602;28;20024;-42
2022/09/06 04:48:08;;;;;;;19.40;17.38;;;;;;;14.81;100.00;101398.09;5093524;28;20099;-42
2022/09/06 04:50:33;;;;;;;19.45;16.52;;;;;;;14.75;100.00;101403.16;5092802;28;20439;-42
2022/09/06 04:52:59;;;;;;;18.92;16.92;;;;;;;14.71;100.00;101392.69;5093419;28;20032;-42
2022/09/06 04:55:25;;;;;;;16.98;14.90;;;;;;;14.57;100.00;101388.03;5093401;28;20526;-45
2022/09/06 04:57:51;;;;;;;19.35;15.73;;;;;;;14.62;100.00;101390.75;5092857;28;20043;-42
2022/09/06 05:00:16;;;;;;;18.20;16.38;;;;;;;14.61;100.00;101396.78;5093214;28;20471;-42
2022/09/06 05:02:42;;;;;;;17.60;15.75;;;;;;;14.55;100.00;101396.63;5093364;28;20028;-42
2022/09/06 05:05:07;;;;;;;18.88;16.50;;;;;;;14.52;100.00;101402.63;5091938;28;20012;-44
2022/09/06 05:07:33;;;;;;;17.90;15.52;;;;;;;14.47;100.00;101397.34;5093408;28;20028;-42
2022/09/06 05:09:58;;;;;;;16.52;14.82;;;;;;;14.49;100.00;101397.38;5093149;28;20023;-43
2022/09/06 05:12:23;;;;;;;16.95;15.15;;;;;;;14.38;100.00;101398.84;5092242;28;20028;-43
2022/09/06 05:14:48;;;;;;;14.82;13.32;;;;;;;14.32;100.00;101395.28;5093239;28;20066;-43
2022/09/06 05:17:14;;;;;;;17.48;15.57;;;;;;;14.32;100.00;101394.41;5093105;28;20035;-43
2022/09/06 05:19:40;;;;;;;18.63;16.52;;;;;;;14.35;100.00;101393.59;5092292;28;20020;-42
2022/09/06 05:22:05;;;;;;;18.55;16.58;;;;;;;14.33;100.00;101396.13;5092913;28;20032;-41
2022/09/06 05:24:30;;;;;;;21.80;19.50;;;;;;;14.43;100.00;101398.09;5093127;28;20046;-42
2022/09/06 05:26:56;;;;;;;29.05;21.00;;;;;;;14.49;100.00;101403.44;5092346;28;20028;-43
2022/09/06 05:29:21;;;;;;;25.60;22.90;;;;;;;14.57;100.00;101400.16;5092651;28;20027;-42
2022/09/06 05:31:46;;;;;;;21.35;19.02;;;;;;;14.57;100.00;101401.00;5093001;28;20047;-44
2022/09/06 05:34:13;;;;;;;22.58;20.17;;;;;;;14.57;100.00;101400.16;5092024;28;20056;-45
2022/09/06 05:36:40;;;;;;;27.93;23.90;;;;;;;14.72;100.00;101405.69;5093107;28;20082;-43
2022/09/06 05:39:05;;;;;;;28.10;23.95;;;;;;;14.81;100.00;101408.50;5092872;28;20270;-42
2022/09/06 05:41:32;;;;;;;31.20;26.13;;;;;;;14.89;100.00;101407.78;5092141;28;20024;-42
2022/09/06 05:43:58;;;;;;;31.13;27.80;;;;;;;14.98;100.00;101400.19;5092714;28;20113;-45
2022/09/06 05:46:23;;;;;;;30.27;27.08;;;;;;;15.03;100.00;101403.75;5091762;28;20352;-42
2022/09/06 05:49:06;;;;;;;33.25;29.30;;;;;;;15.09;100.00;101403.88;5092843;28;20031;-43
2022/09/06 05:51:32;;;;;;;31.92;28.45;;;;;;;15.14;100.00;101415.22;5092843;28;20028;-43
2022/09/06 05:53:58;;;;;;;29.42;25.83;;;;;;;15.20;100.00;101409.25;5092155;28;20024;-41
2022/09/06 05:56:23;;;;;;;29.63;25.60;;;;;;;15.25;100.00;101411.97;5092564;28;20062;-43
2022/09/06 05:58:51;;;;;;;30.95;26.33;;;;;;;15.30;100.00;101405.13;5092807;28;20020;-42
2022/09/06 06:01:17;;;;;;;26.80;23.75;;;;;;;15.36;100.00;101407.81;5089477;28;20390;-42
2022/09/06 06:04:07;;;;;;;32.28;24.13;;;;;;;15.45;100.00;101412.31;5090877;28;20103;-44
2022/09/06 06:06:33;;;;;;;26.40;23.58;;;;;;;15.48;100.00;101410.66;5091343;28;20059;-42
2022/09/06 06:08:59;;;;;;;27.92;24.27;;;;;;;15.51;100.00;101411.59;5091012;28;20021;-43
2022/09/06 06:11:26;;;;;;;26.42;23.67;;;;;;;15.57;100.00;101409.06;5092438;28;20039;-42
2022/09/06 06:13:52;;;;;;;28.17;24.30;;;;;;;15.60;100.00;101410.00;5092431;28;20036;-42
2022/09/06 06:16:20;;;;;;;26.98;24.08;;;;;;;15.63;100.00;101410.06;5091767;28;20020;-42
2022/09/06 06:18:46;;;;;;;28.80;23.63;;;;;;;15.71;100.00;101402.41;5096716;28;20023;-42
2022/09/06 06:21:11;;;;;;;27.92;25.25;;;;;;;15.76;100.00;101408.56;5096276;28;20379;-41
2022/09/06 06:23:37;;;;;;;31.85;26.38;;;;;;;15.81;100.00;101408.66;5095665;28;20085;-45
2022/09/06 06:26:02;;;;;;;29.92;25.52;;;;;;;15.86;100.00;101404.41;5096048;28;20024;-42
2022/09/06 06:28:27;;;;;;;28.45;25.27;;;;;;;15.94;100.00;101408.00;5095986;28;20023;-44
2022/09/06 06:30:53;;;;;;;26.25;23.08;;;;;;;15.99;100.00;101404.63;5095399;28;20063;-42
2022/09/06 06:33:19;;;;;;;26.08;22.42;;;;;;;16.10;100.00;101406.53;5095996;28;20035;-43
2022/09/06 06:35:58;;;;;;;21.17;19.17;;;;;;;16.17;100.00;101411.84;5095342;28;20103;-42
2022/09/06 06:38:24;;;;;;;26.02;19.63;;;;;;;16.26;100.00;101393.78;5095779;28;20035;-43
2022/09/06 06:40:49;;;;;;;25.23;19.67;;;;;;;16.33;100.00;101393.00;5096031;28;20024;-42
2022/09/06 06:43:14;;;;;;;22.33;20.13;;;;;;;16.39;100.00;101390.50;5094936;28;20479;-42
2022/09/06 06:45:39;;;;;;;20.15;18.08;;;;;;;16.52;100.00;101388.94;5096134;28;20024;-43
2022/09/06 06:48:06;;;;;;;21.25;18.98;;;;;;;16.53;100.00;101401.09;5095721;28;20055;-41
2022/09/06 06:50:32;;;;;;;21.08;18.38;;;;;;;16.58;100.00;101399.44;5095003;28;20100;-44
2022/09/06 06:52:57;;;;;;;20.58;18.42;;;;;;;16.59;100.00;101397.69;5095804;28;20432;-42
2022/09/06 06:55:22;;;;;;;20.13;17.75;;;;;;;16.75;100.00;101397.06;5095488;28;20035;-44
2022/09/06 06:57:47;;;;;;;19.67;17.52;;;;;;;16.84;100.00;101403.25;5095008;28;20354;-43
2022/09/06 07:00:13;;;;;;;20.77;15.95;;;;;;;16.96;100.00;101406.00;5114359;27;20036;-44
2022/09/06 07:02:38;;;;;;;19.75;16.45;;;;;;;17.09;100.00;101405.31;5118275;27;20470;-42
2022/09/06 07:05:04;;;;;;;17.25;15.45;;;;;;;17.19;100.00;101408.88;5120316;27;20087;-42
2022/09/06 07:07:29;;;;;;;18.50;15.93;;;;;;;17.22;100.00;101400.22;5119613;27;20031;-43
2022/09/06 07:09:55;;;;;;;15.13;13.20;;;;;;;17.32;100.00;101394.28;5116095;28;20089;-41
2022/09/06 07:12:20;;;;;;;14.75;13.00;;;;;;;17.42;100.00;101401.31;5114935;28;20032;-43
2022/09/06 07:14:45;;;;;;;15.90;13.43;;;;;;;17.58;100.00;101391.94;5104491;27;20032;-45
2022/09/06 07:17:10;;;;;;;16.23;13.25;;;;;;;17.68;100.00;101387.66;5095164;28;20357;-42
2022/09/06 07:19:36;;;;;;;15.60;13.07;;;;;;;17.82;100.00;101389.50;5119035;27;20023;-47
2022/09/06 07:22:01;;;;;;;14.18;12.77;;;;;;;17.92;100.00;101394.81;5111740;27;20114;-46
2022/09/06 07:24:26;;;;;;;15.13;12.45;;;;;;;18.14;100.00;101387.19;5102652;27;20027;-43
2022/09/06 07:26:52;;;;;;;13.63;11.77;;;;;;;18.27;98.70;101391.63;5115429;27;20114;-44
2022/09/06 07:29:17;;;;;;;15.07;12.38;;;;;;;18.34;96.24;101397.75;5115424;27;20425;-43
2022/09/06 07:31:42;;;;;;;14.32;11.80;;;;;;;18.54;97.01;101404.81;5115321;28;20035;-42
2022/09/06 07:34:07;;;;;;;13.93;10.65;;;;;;;18.66;94.60;101397.06;5114563;28;20490;-43
2022/09/06 07:36:34;;;;;;;12.73;10.90;;;;;;;18.80;92.46;101391.03;5115263;28;20019;-44
2022/09/06 07:38:59;;;;;;;11.55;10.20;;;;;;;18.95;91.58;101395.47;5114675;28;20039;-44
2022/09/06 07:41:24;;;;;;;11.90;8.90;;;;;;;19.04;89.53;101396.41;5114999;28;20023;-44
2022/09/06 07:43:53;;;;;;;15.18;9.38;;;;;;;19.27;89.08;101398.19;5115149;28;20047;-42
2022/09/06 07:46:19;;;;;;;13.02;8.75;;;;;;;19.35;88.47;101399.09;5114438;28;20032;-43
2022/09/06 07:48:45;;;;;;;10.20;9.10;;;;;;;19.48;86.24;101397.34;5115368;28;20544;-44
2022/09/06 07:51:21;;;;;;;11.65;8.18;;;;;;;19.60;85.35;101406.97;5114963;28;20038;-42
2022/09/06 07:53:54;;;;;;;9.27;7.63;;;;;;;19.65;82.77;101397.38;5114170;28;20084;-42
2022/09/06 07:56:23;;;;;;;10.32;8.15;;;;;;;19.86;83.70;101396.53;5115026;28;20035;-43
2022/09/06 07:58:49;;;;;;;9.45;8.02;;;;;;;19.95;83.00;101395.66;5115089;28;20015;-42
2022/09/06 08:01:26;;;;;;;11.77;8.55;;;;;;;20.17;83.44;101390.41;5114224;28;20032;-46
2022/09/06 08:03:52;;;;;;;10.80;6.93;;;;;;;20.22;79.09;101375.56;5114894;28;20099;-45
2022/09/06 08:06:17;;;;;;;9.27;7.18;;;;;;;20.46;81.34;101379.84;5114422;28;20177;-42
2022/09/06 08:08:42;;;;;;;10.75;6.80;;;;;;;20.58;80.48;101381.59;5114288;28;20451;-42
2022/09/06 08:11:08;;;;;;;10.95;7.38;;;;;;;20.68;79.53;101378.06;5114516;28;20042;-45
2022/09/06 08:13:34;;;;;;;11.05;7.40;;;;;;;20.95;79.41;101380.59;5114742;28;20080;-42
2022/09/06 08:16:02;;;;;;;8.95;6.65;;;;;;;20.99;76.26;101379.69;5113966;28;20024;-44
2022/09/06 08:18:27;;;;;;;10.65;6.78;;;;;;;21.07;76.26;101382.25;5114552;28;20020;-42
2022/09/06 08:20:53;;;;;;;10.40;6.60;;;;;;;21.16;76.62;101377.84;5114409;28;20022;-47
2022/09/06 08:23:18;;;;;;;10.85;6.60;;;;;;;21.36;76.07;101380.31;5113315;28;20028;-42
2022/09/06 08:25:43;;;;;;;8.20;5.95;;;;;;;21.56;73.66;101376.72;5114422;28;20020;-42
2022/09/06 08:28:09;;;;;;;10.38;6.18;;;;;;;21.69;75.50;101380.13;5113598;28;20031;-41
2022/09/06 08:30:34;;;;;;;12.20;5.88;;;;;;;21.69;73.41;101381.00;5114089;28;20024;-43
2022/09/06 08:33:00;;;;;;;10.95;6.00;;;;;;;21.90;73.33;101384.31;5114409;28;20019;-43
2022/09/06 08:35:26;;;;;;;10.00;5.10;;;;;;;22.06;72.27;101379.78;5113355;28;20019;-44
2022/09/06 08:37:51;;;;;;;9.55;5.63;;;;;;;22.25;72.09;101383.09;5114211;28;20084;-45
2022/09/06 08:40:20;;;;;;;10.57;5.60;;;;;;;22.28;70.61;101388.31;5113433;28;20110;-41
2022/09/06 08:42:46;;;;;;;8.40;5.75;;;;;;;22.28;69.58;101388.31;5113243;28;20109;-43
2022/09/06 08:45:15;;;;;;;8.48;5.63;;;;;;;22.41;68.87;101396.09;5113958;28;20467;-42
2022/09/06 08:47:40;;;;;;;8.05;4.43;;;;;;;22.43;67.70;101382.06;5113752;27;20016;-43
2022/09/06 08:50:06;;;;;;;6.30;3.20;;;;;;;22.49;65.61;101373.25;5113058;28;20081;-44
2022/09/06 08:52:40;;;;;;;8.25;3.08;;;;;;;22.61;67.84;101372.25;5113950;28;20300;-44
2022/09/06 08:55:06;;;;;;;4.93;2.47;;;;;;;22.71;65.10;101375.63;5113823;28;20043;-44
2022/09/06 08:57:49;;;;;;;6.53;2.47;;;;;;;22.82;64.78;101384.25;5113144;28;20050;-43
2022/09/06 09:00:16;;;;;;;4.70;2.70;;;;;;;22.91;64.06;101368.34;5113804;28;20316;-42
2022/09/06 09:02:44;;;;;;;4.95;2.20;;;;;;;22.99;63.70;101374.34;5113746;28;20031;-44
2022/09/06 09:05:31;;;;;;;4.50;2.53;;;;;;;23.06;64.66;101379.53;5113032;28;20020;-45
2022/09/06 09:08:22;;;;;;;6.50;2.67;;;;;;;23.23;63.92;101382.84;5113888;28;20080;-44
2022/09/06 09:10:52;;;;;;;4.30;2.40;;;;;;;23.37;62.96;101376.47;5112903;28;20031;-44
2022/09/06 09:13:31;;;;;;;4.65;2.88;;;;;;;23.43;63.28;101366.72;5113510;28;20089;-42
2022/09/06 09:15:56;;;;;;;6.55;2.80;;;;;;;23.55;62.34;101367.44;5113776;28;20114;-42
2022/09/06 09:18:25;;;;;;;5.38;2.38;;;;;;;23.61;61.94;101362.94;5112671;28;20411;-45
2022/09/06 09:20:51;;;;;;;5.07;2.80;;;;;;;23.73;60.40;101367.16;5113614;28;20027;-43
2022/09/06 09:23:17;;;;;;;4.40;2.35;;;;;;;23.78;60.14;101369.69;5113304;28;20024;-43
2022/09/06 09:25:45;;;;;;;4.60;2.40;;;;;;;23.93;60.75;101363.31;5112658;28;20608;-43
2022/09/06 09:28:16;;;;;;;6.95;3.05;;;;;;;24.16;60.59;101365.53;5113508;28;20054;-44
2022/09/06 09:30:52;;;;;;;7.53;2.90;;;;;;;24.09;60.17;101354.25;5113512;28;20031;-44
2022/09/06 09:33:27;;;;;;;5.67;2.67;;;;;;;24.27;59.84;101368.84;5112391;28;20028;-43
2022/09/06 09:35:54;;;;;;;7.28;2.55;;;;;;;24.65;59.28;101374.25;5113274;28;20386;-42
2022/09/06 09:38:24;;;;;;;8.35;2.70;;;;;;;24.79;58.36;101381.84;5113326;28;20027;-44
2022/09/06 09:40:51;;;;;;;5.95;2.90;;;;;;;24.98;57.71;101374.41;5112881;28;20031;-43
2022/09/06 09:43:19;;;;;;;7.22;3.00;;;;;;;25.11;56.83;101369.75;5112981;28;20044;-43
2022/09/06 09:45:45;;;;;;;5.57;2.50;;;;;;;25.28;56.43;101372.88;5112590;28;20030;-42
2022/09/06 09:48:26;;;;;;;4.85;2.85;;;;;;;25.80;57.44;101376.00;5113113;28;20024;-42
2022/09/06 09:50:52;;;;;;;8.63;3.10;;;;;;;25.94;54.23;101375.66;5114325;28;20020;-46
2022/09/06 09:53:20;;;;;;;6.57;3.10;;;;;;;26.07;52.89;101370.09;5116321;28;20467;-45
2022/09/06 09:55:47;;;;;;;6.25;3.15;;;;;;;26.23;52.77;101370.53;5117545;28;20034;-46
2022/09/06 09:58:34;;;;;;;5.32;2.95;;;;;;;26.78;53.21;101371.59;5117225;28;20080;-42
2022/09/06 10:01:17;;;;;;;6.07;2.90;;;;;;;27.26;51.50;101375.41;5116482;28;20016;-44
2022/09/06 10:03:43;;;;;;;7.20;2.85;;;;;;;27.40;49.21;101367.06;5117406;28;20105;-46
2022/09/06 10:06:12;;;;;;;8.18;3.00;;;;;;;27.68;48.20;101365.28;5117196;28;20061;-47
2022/09/06 10:08:41;;;;;;;6.35;2.92;;;;;;;28.20;47.51;101362.59;5116415;28;20107;-42
2022/09/06 10:11:10;;;;;;;9.90;3.13;;;;;;;28.30;46.95;101373.75;5116907;28;20051;-43
2022/09/06 10:13:36;;;;;;;7.22;3.40;;;;;;;28.63;45.81;101363.66;5116376;28;20035;-45
2022/09/06 10:16:02;;;;;;;6.47;2.90;;;;;;;29.36;44.01;101368.81;5116723;28;20019;-43
2022/09/06 10:18:29;;;;;;;5.28;2.80;;;;;;;29.40;44.51;101368.66;5116965;28;20051;-43
2022/09/06 10:21:14;;;;;;;7.25;2.90;;;;;;;29.33;45.41;101387.53;5116308;28;20015;-47
2022/09/06 10:24:17;;;;;;;6.82;3.05;;;;;;;29.65;45.88;101393.31;5116766;28;20024;-47
2022/09/06 10:26:54;;;;;;;3.92;2.50;;;;;;;29.78;44.62;101383.88;5117161;28;20031;-46
2022/09/06 10:29:41;;;;;;;6.45;2.90;;;;;;;30.07;44.70;101379.13;5115858;28;20049;-44
2022/09/06 10:32:41;;;;;;;5.22;2.78;;;;;;;30.37;43.44;101389.34;5116478;28;20039;-44
2022/09/06 10:35:18;;;;;;;7.00;2.80;;;;;;;30.07;41.49;101389.75;5110974;28;20391;-43
2022/09/06 10:38:06;;;;;;;7.38;2.90;;;;;;;30.19;42.85;101388.38;5116653;28;20031;-43
2022/09/06 10:41:08;;;;;;;8.50;3.38;;;;;;;30.85;43.11;101374.72;5116458;28;20379;-44
2022/09/06 10:44:15;;;;;;;7.07;3.20;;;;;;;30.76;42.06;101372.50;5115437;28;20145;-43
2022/09/06 10:46:42;;;;;;;;;;;;;;;31.87;39.87;101376.00;5053928;28;20029;-43
2022/09/06 10:49:14;;;;;;;6.22;3.22;;;;;;;31.45;39.54;101381.63;5103393;28;19912;-44
2022/09/06 10:51:48;;;;;;;15.63;3.13;;;;;;;32.23;39.49;101375.03;5116365;28;20035;-45
2022/09/06 10:54:18;;;;;;;8.23;3.00;;;;;;;32.08;38.36;101371.34;5116221;27;20020;-43
2022/09/06 10:56:57;;;;;;;7.82;3.35;;;;;;;32.36;39.33;101367.22;5115626;28;20027;-43
2022/09/06 10:59:47;;;;;;;9.98;3.60;;;;;;;31.85;40.74;101374.28;5115777;28;20096;-44
2022/09/06 11:02:22;;;;;;;10.90;3.03;;;;;;;31.27;40.53;101369.22;5115620;28;20043;-47
2022/09/06 11:04:49;;;;;;;8.50;3.60;;;;;;;31.29;39.23;101362.03;5115418;28;20035;-43
2022/09/06 11:07:27;;;;;;;8.45;3.88;;;;;;;30.97;39.13;101375.06;5115955;28;20047;-44
2022/09/06 11:09:59;;;;;;;6.85;3.75;;;;;;;30.74;39.95;101369.03;5115525;27;20047;-44
2022/09/06 11:12:52;;;;;;;7.22;3.75;;;;;;;31.10;40.81;101378.88;5115768;28;20028;-46
2022/09/06 11:15:20;;;;;;;7.40;3.55;;;;;;;31.20;39.80;101384.63;5115760;28;20051;-44
2022/09/06 11:18:01;;;;;;;7.72;3.70;;;;;;;30.71;41.24;101379.81;5115102;28;20023;-44
2022/09/06 11:20:38;;;;;;;5.68;3.35;;;;;;;31.12;41.41;101385.00;5115926;28;20023;-46
2022/09/06 11:23:26;;;;;;;7.18;4.05;;;;;;;31.56;39.32;101382.88;5115722;28;20107;-43